Time;durP1;ratioP1;P1;durP2;ratioP2;P2;SDS_P1;SDS_P2;PMS_P1;PMS_P2;Temp;Humidity;BMP_temperature;BMP_pressure;BME280_temperature;BME280_humidity;BME280_pressure;Samples;Min_cycle;Max_cycle;Signal;HPM_P1;HPM_P2
2021/12/26 00:00:41;;;;;;;1.42;0.73;;;-3273.90;69.90;;;;;;5103486;27;20091;-69
2021/12/26 00:03:06;;;;;;;5.72;1.10;;;-3273.90;70.20;;;;;;5104704;28;20129;-69
2021/12/26 00:05:32;;;;;;;5.78;0.88;;;-3273.80;69.40;;;;;;5128305;27;20047;-69
2021/12/26 00:07:58;;;;;;;5.97;1.27;;;-3273.80;68.10;;;;;;5090171;28;20181;-69
2021/12/26 00:10:26;;;;;;;3.50;1.13;;;-3273.70;68.10;;;;;;5127912;27;20043;-69
2021/12/26 00:12:52;;;;;;;4.35;1.42;;;-3273.70;69.30;;;;;;5128634;27;20096;-69
2021/12/26 00:15:18;;;;;;;3.20;1.23;;;-3273.60;68.80;;;;;;5129197;27;20078;-69
2021/12/26 00:17:44;;;;;;;4.15;0.98;;;-3273.60;69.10;;;;;;5111313;28;20035;-69
2021/12/26 00:20:12;;;;;;;2.80;1.48;;;-3273.50;69.10;;;;;;5128628;27;20041;-69
2021/12/26 00:22:38;;;;;;;5.95;1.58;;;-3273.50;69.50;;;;;;5124156;28;20465;-69
2021/12/26 00:25:07;;;;;;;1.42;1.27;;;-3273.50;69.40;;;;;;5129456;27;20122;-69
2021/12/26 00:27:33;;;;;;;1.90;0.90;;;-3273.50;69.50;;;;;;5111362;28;20074;-69
2021/12/26 00:29:58;;;;;;;2.72;1.20;;;-3273.50;69.00;;;;;;5129142;28;20067;-69
2021/12/26 00:32:24;;;;;;;4.50;1.33;;;-3273.50;69.50;;;;;;5129280;28;20072;-69
2021/12/26 00:34:51;;;;;;;6.30;1.17;;;-3273.40;68.60;;;;;;5129260;28;20043;-69
2021/12/26 00:37:18;;;;;;;4.07;1.30;;;-3273.50;69.60;;;;;;5111163;28;20514;-69
2021/12/26 00:39:44;;;;;;;2.40;1.05;;;-3273.40;69.20;;;;;;5129598;28;20047;-69
2021/12/26 00:42:10;;;;;;;3.88;1.75;;;-3273.50;69.60;;;;;;5110687;28;20050;-69
2021/12/26 00:44:39;;;;;;;2.20;0.80;;;-3273.50;68.90;;;;;;5100784;28;20040;-69
2021/12/26 00:47:07;;;;;;;3.83;0.98;;;-3273.40;68.50;;;;;;5125338;28;20118;-69
2021/12/26 00:49:33;;;;;;;2.35;1.00;;;-3273.40;69.30;;;;;;5119053;28;20040;-69
2021/12/26 00:51:58;;;;;;;3.25;1.08;;;-3273.50;69.60;;;;;;5119658;28;20074;-69
2021/12/26 00:54:24;;;;;;;1.98;0.88;;;-3273.50;69.40;;;;;;5129872;28;20544;-69
2021/12/26 00:56:50;;;;;;;3.03;1.13;;;-3273.50;68.80;;;;;;5125588;28;20047;-69
2021/12/26 00:59:15;;;;;;;3.42;1.20;;;-3273.50;68.70;;;;;;5126257;28;20047;-69
2021/12/26 01:01:41;;;;;;;1.20;0.68;;;-3273.50;69.50;;;;;;5106085;28;20047;-69
2021/12/26 01:04:07;;;;;;;3.45;1.27;;;-3273.60;69.50;;;;;;5120688;28;20046;-69
2021/12/26 01:06:33;;;;;;;2.28;1.05;;;-3273.60;69.30;;;;;;5127244;28;20042;-69
2021/12/26 01:08:59;;;;;;;1.40;0.82;;;-3273.60;68.80;;;;;;5094446;28;20130;-69
2021/12/26 01:14:00;;;;;;;1.73;0.90;;;-3273.60;69.00;;;;;;5119947;28;20048;-69
2021/12/26 01:16:27;;;;;;;7.68;1.50;;;-3273.60;69.20;;;;;;5129301;27;20040;-69
2021/12/26 01:18:59;;;;;;;3.20;1.70;;;-3273.60;69.50;;;;;;5093432;28;20088;-69
2021/12/26 01:21:26;;;;;;;;;;;-3273.60;69.20;;;;;;5110583;28;20043;-69
2021/12/26 01:23:57;;;;;;;2.63;0.90;;;-3273.50;67.90;;;;;;5131794;27;19964;-69
2021/12/26 01:26:24;;;;;;;1.73;0.82;;;-3273.50;68.70;;;;;;5114814;27;20105;-69
2021/12/26 01:28:50;;;;;;;3.53;1.10;;;-3273.50;68.40;;;;;;5136749;27;20048;-69
2021/12/26 01:31:19;;;;;;;2.15;0.95;;;-3273.50;69.00;;;;;;5151239;27;20031;-69
2021/12/26 01:33:48;;;;;;;2.60;0.82;;;-3273.50;68.80;;;;;;5137509;27;20080;-69
2021/12/26 01:36:14;;;;;;;2.50;0.90;;;-3273.50;68.60;;;;;;5114655;27;20039;-69
2021/12/26 01:38:40;;;;;;;3.15;0.80;;;-3273.50;68.70;;;;;;5118735;27;20571;-69
2021/12/26 01:41:09;;;;;;;1.88;0.77;;;-3273.50;68.30;;;;;;5124482;27;20043;-69
2021/12/26 01:43:39;;;;;;;3.08;1.00;;;-3273.50;68.10;;;;;;5112992;27;20081;-69
2021/12/26 01:46:05;;;;;;;4.53;1.58;;;-3273.50;68.10;;;;;;5111819;28;20058;-69
2021/12/26 01:48:31;;;;;;;2.40;1.00;;;-3273.50;68.40;;;;;;5128714;27;20423;-69
2021/12/26 01:50:57;;;;;;;1.95;1.45;;;-3273.50;68.40;;;;;;5096659;27;20067;-69
2021/12/26 01:53:25;;;;;;;1.90;0.80;;;-3273.50;67.90;;;;;;5131934;27;20056;-69
2021/12/26 01:55:55;;;;;;;3.78;1.20;;;-3273.50;67.50;;;;;;5131747;27;20547;-69
2021/12/26 01:58:24;;;;;;;2.03;0.82;;;-3273.40;67.80;;;;;;5131721;27;20110;-69
2021/12/26 02:00:53;;;;;;;4.07;0.80;;;-3273.40;67.70;;;;;;5130200;27;20062;-69
2021/12/26 02:03:19;;;;;;;5.07;1.38;;;-3273.40;68.20;;;;;;5131706;27;20122;-69
2021/12/26 02:05:45;;;;;;;3.78;1.00;;;-3273.30;66.70;;;;;;5132678;27;20122;-69
2021/12/26 02:08:11;;;;;;;1.33;0.80;;;-3273.30;67.10;;;;;;5130883;27;20039;-69
2021/12/26 02:10:36;;;;;;;1.63;0.70;;;-3273.30;67.40;;;;;;5131277;27;20042;-69
2021/12/26 02:13:03;;;;;;;2.20;0.93;;;-3273.30;67.70;;;;;;5108455;28;20555;-69
2021/12/26 02:15:29;;;;;;;2.65;0.90;;;-3273.30;68.10;;;;;;5106036;27;20112;-69
2021/12/26 02:17:55;;;;;;;2.58;1.15;;;-3273.30;68.20;;;;;;5106931;27;20058;-69
2021/12/26 02:20:36;;;;;;;1.30;0.70;;;-3273.30;68.20;;;;;;5121079;27;20050;-69
2021/12/26 02:23:10;;;;;;;2.95;1.25;;;-3273.30;67.70;;;;;;5131688;27;20066;-69
2021/12/26 02:28:21;;;;;;;2.58;1.20;;;-3273.30;67.80;;;;;;5109667;27;20055;-70
2021/12/26 02:30:48;;;;;;;2.33;0.90;;;-3273.30;68.30;;;;;;5122878;27;20122;-70
2021/12/26 02:33:15;;;;;;;3.33;1.13;;;-3273.40;68.40;;;;;;5129708;27;20058;-69
2021/12/26 02:35:42;;;;;;;7.47;0.93;;;-3273.40;68.40;;;;;;5112571;27;20039;-69
2021/12/26 02:38:09;;;;;;;2.80;0.95;;;-3273.30;68.40;;;;;;5124700;27;20047;-69
2021/12/26 02:40:35;;;;;;;1.08;0.55;;;-3273.40;68.80;;;;;;5130739;27;20046;-69
2021/12/26 02:43:01;;;;;;;2.17;1.00;;;-3273.40;68.30;;;;;;5101411;27;20158;-69
2021/12/26 02:45:26;;;;;;;3.03;0.90;;;-3273.30;68.00;;;;;;5122688;27;20050;-69
2021/12/26 02:47:53;;;;;;;2.15;0.80;;;-3273.30;68.20;;;;;;5123106;27;20152;-69
2021/12/26 02:50:22;;;;;;;2.53;0.90;;;-3273.30;67.80;;;;;;5130969;27;20122;-69
2021/12/26 02:52:48;;;;;;;3.38;0.95;;;-3273.30;68.00;;;;;;5098444;27;20106;-70
2021/12/26 02:55:16;;;;;;;5.07;1.70;;;-3273.20;67.70;;;;;;5110976;27;20616;-69
2021/12/26 02:57:49;;;;;;;3.42;1.13;;;-3273.20;67.90;;;;;;5093127;27;20127;-69
2021/12/26 03:00:18;;;;;;;2.40;0.90;;;-3273.20;67.70;;;;;;5129991;27;20043;-70
2021/12/26 03:02:46;;;;;;;2.05;1.00;;;-3273.10;67.50;;;;;;5130608;27;20043;-69
2021/12/26 03:05:12;;;;;;;3.92;1.00;;;-3273.20;67.90;;;;;;5110940;27;20042;-69
2021/12/26 03:07:37;;;;;;;5.25;1.08;;;-3273.20;67.50;;;;;;5108871;27;20074;-69
2021/12/26 03:10:10;;;;;;;2.22;1.00;;;-3273.20;67.90;;;;;;5129824;27;20479;-69
2021/12/26 03:12:41;;;;;;;3.42;1.00;;;-3273.20;67.80;;;;;;5129474;27;20090;-69
2021/12/26 03:15:10;;;;;;;2.20;0.90;;;-3273.20;67.50;;;;;;5129622;27;20043;-69
2021/12/26 03:17:37;;;;;;;2.47;1.00;;;-3273.20;67.80;;;;;;5130101;27;20054;-69
2021/12/26 03:20:11;;;;;;;4.40;0.90;;;-3273.20;67.90;;;;;;5110525;27;20134;-69
2021/12/26 03:22:37;;;;;;;4.38;1.23;;;-3273.10;66.80;;;;;;5101133;28;20048;-69
2021/12/26 03:25:04;;;;;;;3.75;1.13;;;-3273.10;67.50;;;;;;5124968;27;20049;-69
2021/12/26 03:27:30;;;;;;;2.85;1.02;;;-3273.10;67.20;;;;;;5128212;27;20816;-69
2021/12/26 03:29:55;;;;;;;6.00;1.23;;;-3273.20;67.70;;;;;;5129681;27;20063;-68
2021/12/26 03:32:22;;;;;;;3.42;1.05;;;-3273.20;67.30;;;;;;5111897;27;20130;-69
2021/12/26 03:34:49;;;;;;;2.20;1.15;;;-3273.10;66.60;;;;;;5109252;28;20055;-69
2021/12/26 03:37:15;;;;;;;2.88;0.88;;;-3273.20;67.40;;;;;;5129438;27;20043;-70
2021/12/26 03:39:41;;;;;;;2.72;1.10;;;-3273.20;67.50;;;;;;5129123;27;20054;-69
2021/12/26 03:42:07;;;;;;;4.30;1.15;;;-3273.30;67.70;;;;;;5129476;27;20053;-69
2021/12/26 03:44:33;;;;;;;1.52;0.85;;;-3273.30;67.90;;;;;;5122563;27;20032;-69
2021/12/26 03:46:59;;;;;;;3.15;0.98;;;-3273.20;66.50;;;;;;5125194;27;20058;-69
2021/12/26 03:49:26;;;;;;;3.70;1.08;;;-3273.30;67.50;;;;;;5130110;27;20570;-69
2021/12/26 03:51:51;;;;;;;1.95;0.98;;;-3273.30;67.40;;;;;;5123232;27;20043;-69
2021/12/26 03:54:17;;;;;;;2.42;0.88;;;-3273.30;67.30;;;;;;5129409;27;20059;-69
2021/12/26 03:56:43;;;;;;;1.83;0.90;;;-3273.20;67.00;;;;;;5124056;27;20519;-69
2021/12/26 03:59:09;;;;;;;4.20;0.98;;;-3273.10;66.90;;;;;;5126676;27;20081;-69
2021/12/26 04:01:35;;;;;;;2.97;1.15;;;-3273.10;66.90;;;;;;5130205;27;20049;-69
2021/12/26 04:04:01;;;;;;;1.92;0.82;;;-3273.20;67.10;;;;;;5129030;27;20074;-69
2021/12/26 04:06:27;;;;;;;2.00;0.80;;;-3273.20;67.60;;;;;;5111229;28;20388;-69
2021/12/26 04:08:54;;;;;;;3.17;1.73;;;-3273.10;67.30;;;;;;5112827;27;20046;-69
2021/12/26 04:11:19;;;;;;;3.20;1.05;;;-3273.10;66.90;;;;;;5117533;27;20035;-69
2021/12/26 04:13:45;;;;;;;2.55;1.10;;;-3273.10;67.10;;;;;;5128597;28;20043;-69
2021/12/26 04:16:12;;;;;;;4.13;0.90;;;-3273.20;67.40;;;;;;5126706;28;20035;-69
2021/12/26 04:18:38;;;;;;;3.22;0.85;;;-3273.20;66.10;;;;;;5115609;28;20542;-69
2021/12/26 04:21:05;;;;;;;2.47;0.93;;;-3273.20;65.60;;;;;;5110441;27;20106;-69
2021/12/26 04:23:32;;;;;;;2.45;1.20;;;-3273.20;66.10;;;;;;5130054;27;20046;-69
2021/12/26 04:25:57;;;;;;;4.22;1.02;;;-3273.20;65.80;;;;;;5115884;27;20048;-69
2021/12/26 04:28:23;;;;;;;1.77;0.82;;;-3273.20;66.00;;;;;;5111776;28;20042;-69
2021/12/26 04:30:49;;;;;;;2.72;1.15;;;-3273.20;65.80;;;;;;5129051;28;20051;-69
2021/12/26 04:33:15;;;;;;;1.70;1.00;;;-3273.30;65.90;;;;;;5110584;28;20066;-69
2021/12/26 04:35:40;;;;;;;2.95;0.85;;;-3273.30;65.50;;;;;;5111619;28;20118;-69
2021/12/26 04:38:06;;;;;;;3.10;1.10;;;-3273.30;65.50;;;;;;5128740;28;20043;-69
2021/12/26 04:40:32;;;;;;;2.67;1.10;;;-3273.30;64.60;;;;;;5127966;28;20046;-69
2021/12/26 04:42:57;;;;;;;3.95;1.00;;;-3273.20;65.20;;;;;;5129342;28;20054;-69
2021/12/26 04:45:25;;;;;;;2.58;0.95;;;-3273.30;65.70;;;;;;5097382;28;20051;-69
2021/12/26 04:47:51;;;;;;;2.30;1.02;;;-3273.30;65.70;;;;;;5123142;27;20181;-69
2021/12/26 04:50:19;;;;;;;4.03;2.15;;;-3273.30;65.50;;;;;;5099529;28;20126;-69
2021/12/26 04:52:46;;;;;;;2.20;0.85;;;-3273.30;64.40;;;;;;5101351;28;20055;-69
2021/12/26 04:55:14;;;;;;;3.42;1.17;;;-3273.30;64.80;;;;;;5091027;28;20040;-69
2021/12/26 04:57:39;;;;;;;3.38;0.90;;;-3273.20;65.60;;;;;;5120130;27;20039;-69
2021/12/26 05:00:08;;;;;;;1.73;0.82;;;-3273.20;64.90;;;;;;5132294;27;20091;-69
2021/12/26 05:02:36;;;;;;;2.45;0.98;;;-3273.30;65.70;;;;;;5127894;27;20054;-69
2021/12/26 05:05:03;;;;;;;2.45;1.25;;;-3273.30;66.10;;;;;;5133141;27;20039;-69
2021/12/26 05:07:29;;;;;;;1.52;0.82;;;-3273.30;66.20;;;;;;5108025;27;20035;-69
2021/12/26 05:09:55;;;;;;;3.67;0.68;;;-3273.30;66.20;;;;;;5132720;27;20107;-69
2021/12/26 05:12:22;;;;;;;2.10;1.00;;;-3273.30;66.40;;;;;;5107826;27;20551;-69
2021/12/26 05:14:48;;;;;;;2.55;1.20;;;-3273.30;65.50;;;;;;5133718;27;20047;-69
2021/12/26 05:17:14;;;;;;;2.75;1.20;;;-3273.30;66.40;;;;;;5132127;27;20088;-69
2021/12/26 05:19:39;;;;;;;1.95;0.75;;;-3273.30;66.50;;;;;;5133207;27;20503;-69
2021/12/26 05:22:05;;;;;;;4.05;1.05;;;-3273.40;66.40;;;;;;5130994;27;20134;-69
2021/12/26 05:24:30;;;;;;;2.83;1.20;;;-3273.30;65.90;;;;;;5133157;27;20047;-68
2021/12/26 05:26:56;;;;;;;2.42;1.00;;;-3273.30;65.60;;;;;;5132589;27;20104;-69
2021/12/26 05:29:22;;;;;;;4.20;1.02;;;-3273.30;66.00;;;;;;5113898;27;20464;-69
2021/12/26 05:31:47;;;;;;;3.08;1.23;;;-3273.30;66.20;;;;;;5133419;27;20047;-69
2021/12/26 05:34:13;;;;;;;3.03;0.85;;;-3273.30;66.10;;;;;;5117021;27;20051;-69
2021/12/26 05:36:38;;;;;;;2.65;0.82;;;-3273.30;65.90;;;;;;5092537;28;20050;-69
2021/12/26 05:39:04;;;;;;;2.30;0.82;;;-3273.30;65.80;;;;;;5128658;27;20159;-69
2021/12/26 05:41:32;;;;;;;1.85;0.85;;;-3273.30;65.70;;;;;;5097611;27;20442;-69
2021/12/26 05:43:58;;;;;;;2.72;1.00;;;-3273.30;66.20;;;;;;5110691;27;20456;-69
2021/12/26 05:46:24;;;;;;;3.50;1.00;;;-3273.30;66.20;;;;;;5126180;27;20099;-69
2021/12/26 05:48:50;;;;;;;5.38;0.75;;;-3273.20;65.80;;;;;;5129461;27;20047;-70
2021/12/26 05:51:16;;;;;;;4.30;1.17;;;-3273.20;66.10;;;;;;5127882;27;20078;-69
2021/12/26 05:53:42;;;;;;;2.97;1.27;;;-3273.20;66.00;;;;;;5088278;28;20082;-68
2021/12/26 05:56:08;;;;;;;2.63;0.90;;;-3273.20;65.50;;;;;;5127021;27;20666;-70
2021/12/26 05:58:34;;;;;;;1.90;0.88;;;-3273.00;65.10;;;;;;5132171;27;20055;-67
2021/12/26 06:01:00;;;;;;;3.67;1.30;;;-3273.00;65.20;;;;;;5130598;27;20099;-67
2021/12/26 06:03:26;;;;;;;4.30;0.80;;;-3273.00;66.20;;;;;;5096451;28;20445;-67
2021/12/26 06:05:51;;;;;;;2.10;1.15;;;-3273.00;66.40;;;;;;5117618;27;20031;-67
2021/12/26 06:08:17;;;;;;;4.40;1.00;;;-3273.00;66.50;;;;;;5106746;28;20054;-68
2021/12/26 06:10:43;;;;;;;1.65;0.90;;;-3273.10;66.80;;;;;;5111896;27;20066;-68
2021/12/26 06:13:09;;;;;;;2.20;1.02;;;-3273.10;66.90;;;;;;5111157;28;20043;-67
2021/12/26 06:15:35;;;;;;;3.10;1.08;;;-3273.10;66.80;;;;;;5114670;27;20035;-68
2021/12/26 06:18:01;;;;;;;2.50;1.10;;;-3273.20;66.70;;;;;;5107536;27;20445;-68
2021/12/26 06:20:27;;;;;;;4.25;1.30;;;-3273.20;67.20;;;;;;5126984;27;20047;-68
2021/12/26 06:22:52;;;;;;;6.70;1.15;;;-3273.20;66.10;;;;;;5113283;27;20388;-68
2021/12/26 06:25:18;;;;;;;2.25;1.13;;;-3273.20;66.70;;;;;;5118351;27;20547;-68
2021/12/26 06:27:44;;;;;;;1.95;1.08;;;-3273.20;66.10;;;;;;5123922;27;20043;-68
2021/12/26 06:30:12;;;;;;;4.07;1.33;;;-3273.10;65.90;;;;;;5132066;27;20066;-68
2021/12/26 06:32:37;;;;;;;4.78;1.80;;;-3273.10;66.20;;;;;;5131519;27;20096;-68
2021/12/26 06:35:04;;;;;;;3.40;0.93;;;-3273.10;66.60;;;;;;5123678;27;20454;-67
2021/12/26 06:37:30;;;;;;;2.72;1.27;;;-3273.10;67.00;;;;;;5128583;27;20532;-68
2021/12/26 06:39:59;;;;;;;3.33;0.82;;;-3273.10;67.00;;;;;;5131891;27;20092;-67
2021/12/26 06:42:25;;;;;;;4.18;0.80;;;-3273.10;67.00;;;;;;5127807;27;20578;-68
2021/12/26 06:44:51;;;;;;;3.15;1.10;;;-3273.20;66.50;;;;;;5117839;27;20053;-68
2021/12/26 06:47:17;;;;;;;3.15;1.50;;;-3273.20;66.70;;;;;;5128770;27;20126;-67
2021/12/26 06:49:43;;;;;;;2.88;1.10;;;-3273.20;66.70;;;;;;5131205;27;20091;-67
2021/12/26 06:52:09;;;;;;;6.20;1.38;;;-3273.20;66.00;;;;;;5113248;27;20043;-68
2021/12/26 06:54:36;;;;;;;3.53;1.10;;;-3273.20;66.20;;;;;;5095565;27;20078;-67
2021/12/26 06:57:03;;;;;;;2.53;0.88;;;-3273.20;66.40;;;;;;5118574;27;20445;-67
2021/12/26 06:59:29;;;;;;;3.00;1.35;;;-3273.20;66.70;;;;;;5111449;27;20044;-67
2021/12/26 07:01:55;;;;;;;1.75;0.90;;;-3273.30;66.80;;;;;;5119639;27;20078;-67
2021/12/26 07:04:21;;;;;;;6.20;1.30;;;-3273.30;66.20;;;;;;5130529;27;20491;-67
2021/12/26 07:06:46;;;;;;;3.50;1.15;;;-3273.30;66.00;;;;;;5118373;27;20097;-66
2021/12/26 07:09:12;;;;;;;1.70;0.82;;;-3273.30;65.30;;;;;;5111584;27;20044;-67
2021/12/26 07:11:38;;;;;;;2.05;1.02;;;-3273.30;64.80;;;;;;5110679;28;20126;-67
2021/12/26 07:14:04;;;;;;;2.95;1.02;;;-3273.30;65.10;;;;;;5093691;28;20048;-68
2021/12/26 07:16:29;;;;;;;4.80;1.27;;;-3273.30;64.70;;;;;;5125340;27;20036;-68
2021/12/26 07:18:55;;;;;;;5.15;1.27;;;-3273.30;64.60;;;;;;5115544;27;20091;-67
2021/12/26 07:21:21;;;;;;;3.25;2.13;;;-3273.30;64.70;;;;;;5113370;27;20415;-68
2021/12/26 07:23:46;;;;;;;2.50;1.33;;;-3273.30;64.40;;;;;;5091952;28;20039;-68
2021/12/26 07:26:12;;;;;;;2.80;1.30;;;-3273.30;64.60;;;;;;5117009;27;20040;-68
2021/12/26 07:28:38;;;;;;;2.20;1.10;;;-3273.30;64.10;;;;;;5110141;27;20156;-68
2021/12/26 07:31:04;;;;;;;2.00;1.15;;;-3273.20;63.30;;;;;;5101756;28;20043;-68
2021/12/26 07:33:29;;;;;;;5.93;1.58;;;-3273.30;64.10;;;;;;5121385;27;20408;-68
2021/12/26 07:35:55;;;;;;;4.60;1.83;;;-3273.20;64.40;;;;;;5118314;27;20054;-68
2021/12/26 07:38:21;;;;;;;3.55;1.40;;;-3273.20;63.20;;;;;;5110269;27;20067;-67
2021/12/26 07:40:47;;;;;;;5.30;2.00;;;-3273.20;64.40;;;;;;5124775;27;20043;-68
2021/12/26 07:43:13;;;;;;;2.20;1.10;;;-3273.20;64.80;;;;;;5108386;27;20043;-68
2021/12/26 07:45:39;;;;;;;2.55;1.02;;;-3273.20;64.70;;;;;;5130366;27;20193;-68
2021/12/26 07:48:05;;;;;;;1.98;1.20;;;-3273.20;65.10;;;;;;5111507;27;20524;-68
2021/12/26 07:50:31;;;;;;;3.05;1.20;;;-3273.20;65.10;;;;;;5130043;27;20043;-68
2021/12/26 07:53:03;;;;;;;3.20;1.30;;;-3273.30;65.40;;;;;;5104979;28;20071;-68
2021/12/26 07:55:28;;;;;;;;;;;-3273.20;64.90;;;;;;5110411;28;20685;-69
2021/12/26 07:57:57;;;;;;;2.55;1.50;;;-3273.20;65.20;;;;;;5111437;27;19927;-68
2021/12/26 08:00:22;;;;;;;3.03;1.55;;;-3273.10;65.50;;;;;;5122610;27;20515;-68
2021/12/26 08:02:48;;;;;;;4.82;1.88;;;-3273.10;64.70;;;;;;5114943;27;20089;-68
2021/12/26 08:05:15;;;;;;;5.50;1.45;;;-3273.10;65.40;;;;;;5112334;27;20514;-68
2021/12/26 08:07:41;;;;;;;3.75;1.67;;;-3273.10;65.80;;;;;;5123995;27;20130;-68
2021/12/26 08:10:07;;;;;;;3.22;1.42;;;-3273.20;65.70;;;;;;5091484;28;20127;-68
2021/12/26 08:12:33;;;;;;;4.15;1.70;;;-3273.10;65.40;;;;;;5119164;28;20069;-68
2021/12/26 08:15:02;;;;;;;2.63;1.45;;;-3273.10;65.40;;;;;;5090906;28;20044;-68
2021/12/26 08:17:29;;;;;;;3.25;1.42;;;-3273.10;65.80;;;;;;5080560;28;21065;-68
2021/12/26 08:19:56;;;;;;;3.17;1.85;;;-3273.10;66.40;;;;;;5109324;28;20549;-67
2021/12/26 08:22:21;;;;;;;5.13;1.80;;;-3273.10;66.70;;;;;;5125390;28;20039;-68
2021/12/26 08:24:47;;;;;;;5.15;1.83;;;-3273.10;67.00;;;;;;5089378;28;20032;-68
2021/12/26 08:27:13;;;;;;;4.70;2.58;;;-3273.10;66.70;;;;;;5093208;28;20475;-68
2021/12/26 08:29:38;;;;;;;3.85;1.45;;;-3273.10;66.90;;;;;;5122058;28;20492;-68
2021/12/26 08:32:05;;;;;;;5.20;1.60;;;-3273.10;66.80;;;;;;5089373;27;20043;-69
2021/12/26 08:34:31;;;;;;;4.28;1.73;;;-3273.10;67.30;;;;;;5125854;27;20571;-68
2021/12/26 08:37:02;;;;;;;4.55;1.60;;;-3273.10;67.10;;;;;;5118648;27;20123;-68
2021/12/26 08:39:29;;;;;;;5.20;2.15;;;-3273.20;67.20;;;;;;5095190;27;20916;-68
2021/12/26 08:41:55;;;;;;;4.20;1.90;;;-3273.30;66.80;;;;;;5115364;27;20044;-68
2021/12/26 08:44:22;;;;;;;5.20;1.77;;;-3273.30;66.80;;;;;;5113540;27;20629;-68
2021/12/26 08:46:48;;;;;;;3.90;1.77;;;-3273.40;66.20;;;;;;5094589;28;20500;-68
2021/12/26 08:49:15;;;;;;;4.10;1.77;;;-3273.40;66.30;;;;;;5097920;27;20126;-68
2021/12/26 08:51:41;;;;;;;4.57;1.65;;;-3273.50;66.40;;;;;;5121495;27;20089;-68
2021/12/26 08:54:08;;;;;;;5.82;1.48;;;-3273.50;66.10;;;;;;5118259;27;20082;-68
2021/12/26 08:56:34;;;;;;;4.07;1.92;;;-3273.50;65.50;;;;;;5077630;27;20046;-68
2021/12/26 08:58:59;;;;;;;4.57;1.98;;;-3273.60;65.70;;;;;;5112696;27;20044;-68
2021/12/26 09:01:25;;;;;;;6.32;1.73;;;-3273.60;65.20;;;;;;5098344;27;20497;-68
2021/12/26 09:03:51;;;;;;;3.88;1.70;;;-3273.60;65.30;;;;;;5114317;27;20097;-68
2021/12/26 09:06:16;;;;;;;6.32;1.52;;;-3273.60;65.80;;;;;;5115513;27;20411;-68
2021/12/26 09:08:42;;;;;;;4.82;1.90;;;-3273.70;65.50;;;;;;5113093;27;20126;-68
2021/12/26 09:11:08;;;;;;;3.85;2.00;;;-3273.70;65.30;;;;;;5108121;27;20035;-68
2021/12/26 09:13:35;;;;;;;3.25;1.70;;;-3273.70;65.20;;;;;;5114135;27;20608;-69
2021/12/26 09:16:01;;;;;;;5.00;1.95;;;-3273.80;65.40;;;;;;5090865;27;20372;-69
2021/12/26 09:18:30;;;;;;;4.07;2.08;;;-3273.90;65.40;;;;;;5115432;27;20067;-69
2021/12/26 09:20:56;;;;;;;4.40;1.90;;;-3273.90;65.10;;;;;;5113881;27;20043;-69
2021/12/26 09:23:21;;;;;;;5.18;1.90;;;-3274.00;65.50;;;;;;5129733;27;20540;-68
2021/12/26 09:25:47;;;;;;;6.25;2.05;;;-3274.00;65.60;;;;;;5102755;27;20066;-69
2021/12/26 09:28:13;;;;;;;3.42;1.55;;;-3274.00;65.30;;;;;;5077369;27;20043;-69
2021/12/26 09:30:39;;;;;;;6.63;2.65;;;-3274.10;65.40;;;;;;5112695;28;20062;-68
2021/12/26 09:33:05;;;;;;;4.60;1.98;;;-3274.10;65.60;;;;;;5112362;27;20488;-68
2021/12/26 09:35:31;;;;;;;4.03;1.77;;;-3274.20;65.70;;;;;;5117252;27;20343;-67
2021/12/26 09:37:58;;;;;;;7.18;1.80;;;-3274.30;65.50;;;;;;5121158;27;20538;-67
2021/12/26 09:40:23;;;;;;;7.00;1.85;;;-3274.30;65.40;;;;;;5094361;28;20051;-69
2021/12/26 09:42:49;;;;;;;5.07;2.42;;;-3274.40;65.20;;;;;;5109137;27;20039;-68
2021/12/26 09:45:16;;;;;;;7.53;2.15;;;-3274.50;64.90;;;;;;5114128;27;20103;-68
2021/12/26 09:47:43;;;;;;;3.85;2.22;;;-3274.60;64.90;;;;;;5111674;27;20172;-67
2021/12/26 09:50:12;;;;;;;7.85;1.88;;;-3274.60;64.70;;;;;;5113127;27;20036;-67
2021/12/26 09:52:43;;;;;;;3.75;1.70;;;-3274.90;66.20;;;;;;5110263;27;20505;-69
2021/12/26 09:55:10;;;;;;;5.40;2.17;;;-3275.00;64.70;;;;;;5127947;27;20040;-66
2021/12/26 09:57:36;;;;;;;8.95;4.15;;;-3275.10;63.70;;;;;;5130350;27;20043;-67
2021/12/26 10:00:27;;;;;;;4.97;1.90;;;-3275.00;64.20;;;;;;5109184;28;20058;-66
2021/12/26 10:03:35;;;;;;;4.00;2.08;;;-3275.10;63.50;;;;;;5107660;28;20040;-67
2021/12/26 10:06:10;;;;;;;5.32;1.98;;;-3275.00;63.10;;;;;;5109148;28;20044;-67
2021/12/26 10:09:07;;;;;;;4.45;1.90;;;-3275.00;63.80;;;;;;5096637;28;20050;-66
2021/12/26 10:11:48;;;;;;;5.28;2.05;;;-3275.10;63.60;;;;;;5092945;28;21383;-66
2021/12/26 10:14:17;;;;;;;4.45;1.48;;;-3275.10;63.80;;;;;;5099258;28;20048;-66
2021/12/26 10:16:45;;;;;;;5.68;1.52;;;-3275.20;63.80;;;;;;5091652;28;20044;-67
2021/12/26 10:19:12;;;;;;;5.32;2.00;;;-3275.20;63.30;;;;;;5095805;28;20044;-67
2021/12/26 10:21:45;;;;;;;4.90;1.60;;;-3275.20;63.40;;;;;;5093510;28;20097;-67
2021/12/26 10:24:22;;;;;;;5.22;2.10;;;-3275.30;63.60;;;;;;5106803;28;20078;-67
2021/12/26 10:26:49;;;;;;;4.63;2.10;;;-3275.30;63.60;;;;;;5104429;28;20125;-66
2021/12/26 10:29:24;;;;;;;5.65;2.42;;;-3275.30;63.20;;;;;;5110651;28;20488;-66
2021/12/26 10:31:52;;;;;;;3.60;1.85;;;-3275.40;63.30;;;;;;5097588;28;20059;-66
2021/12/26 10:34:23;;;;;;;3.60;2.25;;;-3275.40;62.70;;;;;;5075435;28;20039;-66
2021/12/26 10:36:53;;;;;;;3.53;1.70;;;-3275.30;62.20;;;;;;5102438;28;20044;-66
2021/12/26 10:39:25;;;;;;;3.47;1.63;;;-3275.40;62.80;;;;;;5098103;28;20047;-66
2021/12/26 10:41:57;;;;;;;5.28;2.10;;;-3275.40;63.10;;;;;;5103145;28;20043;-66
2021/12/26 10:44:33;;;;;;;4.10;1.80;;;-3275.40;62.50;;;;;;5106417;28;20508;-66
2021/12/26 10:47:05;;;;;;;3.53;1.77;;;-3275.40;61.90;;;;;;5097922;28;20044;-66
2021/12/26 10:49:52;;;;;;;10.40;2.10;;;-3275.50;63.10;;;;;;5096841;28;20126;-66
2021/12/26 10:52:21;;;;;;;4.22;1.98;;;-3275.50;61.60;;;;;;5100747;28;20146;-66
2021/12/26 10:54:56;;;;;;;6.55;2.75;;;-3275.60;62.60;;;;;;5094317;28;20054;-66
2021/12/26 10:57:43;;;;;;;3.53;1.70;;;-3275.60;61.80;;;;;;5093116;28;20036;-66
2021/12/26 11:00:22;;;;;;;5.22;1.90;;;-3275.60;62.20;;;;;;5113376;27;20052;-66
2021/12/26 11:02:54;;;;;;;5.57;2.60;;;-3275.60;62.30;;;;;;5110167;27;20134;-66
2021/12/26 11:05:24;;;;;;;4.53;2.25;;;-3275.60;62.70;;;;;;5110056;27;20082;-67
2021/12/26 11:07:55;;;;;;;5.75;3.72;;;-3275.60;63.30;;;;;;5111052;27;20039;-66
2021/12/26 11:10:22;;;;;;;9.82;6.03;;;-3275.70;63.80;;;;;;5095938;27;20093;-66
2021/12/26 11:12:55;;;;;;;6.15;3.08;;;-3275.80;64.20;;;;;;5128617;27;20089;-66
2021/12/26 11:15:23;;;;;;;24.73;13.70;;;-3276.00;63.70;;;;;;5110814;27;20036;-66
2021/12/26 11:17:59;;;;;;;11.15;6.45;;;-3276.00;63.10;;;;;;5122358;27;20039;-66
2021/12/26 11:20:34;;;;;;;16.27;10.38;;;-3276.10;63.60;;;;;;5118599;27;20043;-66
2021/12/26 11:23:09;;;;;;;14.07;8.73;;;-3276.10;62.90;;;;;;5109198;27;20042;-66
2021/12/26 11:25:36;;;;;;;6.53;3.97;;;-3276.10;62.90;;;;;;5128423;27;20041;-66
2021/12/26 11:28:02;;;;;;;6.10;2.85;;;-3276.20;63.30;;;;;;5129630;27;20043;-67
2021/12/26 11:30:27;;;;;;;8.38;4.65;;;-3276.20;63.50;;;;;;5129877;27;20484;-64
2021/12/26 11:32:54;;;;;;;6.82;3.55;;;-3276.20;63.40;;;;;;5111463;27;20487;-63
2021/12/26 11:35:20;;;;;;;24.98;14.93;;;-3276.20;62.80;;;;;;5122450;27;20447;-64
2021/12/26 11:37:47;;;;;;;5.88;3.47;;;-3276.20;63.20;;;;;;5117144;27;20032;-65
2021/12/26 11:40:14;;;;;;;5.95;3.33;;;-3276.20;63.30;;;;;;5118656;27;20035;-64
2021/12/26 11:42:57;;;;;;;6.85;3.78;;;-3276.20;62.50;;;;;;5123201;27;20487;-64
2021/12/26 11:45:37;;;;;;;4.45;2.65;;;-3276.30;64.10;;;;;;5124842;27;20039;-64
2021/12/26 11:48:20;;;;;;;5.43;2.90;;;-3276.30;64.50;;;;;;5113585;27;20032;-64
2021/12/26 11:51:01;;;;;;;4.85;2.50;;;-3276.30;64.10;;;;;;5126123;27;20040;-65
2021/12/26 11:54:00;;;;;;;7.20;4.05;;;-3276.40;64.30;;;;;;5118516;27;20065;-65
2021/12/26 11:56:54;;;;;;;56.13;29.27;;;-3276.40;64.00;;;;;;5095461;28;20039;-64
2021/12/26 11:59:56;;;;;;;5.68;3.17;;;-3276.60;68.70;;;;;;5085210;27;20095;-65
2021/12/26 12:02:36;;;;;;;7.95;3.60;;;0.00;64.20;;;;;;5114227;27;20047;-65
2021/12/26 12:05:10;;;;;;;6.28;2.35;;;0.00;63.80;;;;;;5122975;27;20031;-65
2021/12/26 12:07:49;;;;;;;5.85;1.92;;;0.00;64.20;;;;;;5121679;27;20196;-64
2021/12/26 12:10:37;;;;;;;7.55;3.65;;;0.00;64.40;;;;;;5127043;27;20039;-64
2021/12/26 12:13:05;;;;;;;6.78;3.05;;;0.00;64.40;;;;;;5127713;27;20506;-64
2021/12/26 12:15:49;;;;;;;41.05;25.52;;;0.00;64.80;;;;;;5110147;28;20055;-68
2021/12/26 12:18:17;;;;;;;5.82;3.08;;;0.70;77.60;;;;;;5112653;28;20042;-67
2021/12/26 12:20:43;;;;;;;4.72;2.33;;;1.20;68.70;;;;;;5110272;28;20043;-65
2021/12/26 12:23:08;;;;;;;5.43;2.70;;;1.20;65.70;;;;;;5119438;28;20099;-66
2021/12/26 12:25:34;;;;;;;7.68;2.38;;;1.00;63.90;;;;;;5129488;28;20095;-65
2021/12/26 12:28:19;;;;;;;4.68;2.33;;;0.80;64.40;;;;;;5125922;28;20043;-66